createdAt,value
2023-03-18T00:01:04.216Z,90.40
2023-03-18T00:05:26.283Z,90.10
2023-03-18T00:09:48.823Z,90.00
2023-03-18T00:14:11.327Z,90.00
2023-03-18T00:18:34.540Z,90.10
2023-03-18T00:22:57.659Z,89.90
2023-03-18T00:27:19.895Z,89.80
2023-03-18T00:31:42.267Z,90.30
2023-03-18T00:36:06.705Z,90.10
2023-03-18T00:40:43.196Z,90.30
2023-03-18T00:45:13.674Z,90.40
2023-03-18T00:49:36.817Z,90.30
2023-03-18T00:54:02.130Z,90.10
2023-03-18T00:58:24.783Z,90.10
2023-03-18T01:02:49.447Z,90.20
2023-03-18T01:07:12.639Z,90.20
2023-03-18T01:11:35.058Z,90.10
2023-03-18T01:15:57.670Z,90.20
2023-03-18T01:20:21.257Z,90.20
2023-03-18T01:24:47.640Z,90.20
2023-03-18T01:29:11.557Z,90.20
2023-03-18T01:33:35.836Z,90.20
2023-03-18T01:37:59.039Z,90.30
2023-03-18T01:42:22.418Z,90.40
2023-03-18T01:46:50.205Z,90.70
2023-03-18T01:51:14.572Z,90.60
2023-03-18T01:55:38.493Z,90.80
2023-03-18T02:00:02.185Z,91.00
2023-03-18T02:04:33.311Z,91.10
2023-03-18T02:08:56.212Z,91.20
2023-03-18T02:13:18.873Z,91.30
2023-03-18T02:17:53.874Z,91.30
2023-03-18T02:22:29.580Z,91.20
2023-03-18T02:27:18.601Z,91.40
2023-03-18T02:31:42.624Z,91.30
2023-03-18T02:36:12.354Z,91.50
2023-03-18T02:40:42.791Z,91.40
2023-03-18T02:45:45.716Z,91.30
2023-03-18T02:50:10.114Z,91.40
2023-03-18T02:54:34.026Z,91.50
2023-03-18T02:58:56.216Z,91.60
2023-03-18T03:03:18.752Z,91.50
2023-03-18T03:07:41.696Z,91.40
2023-03-18T03:12:05.428Z,91.50
2023-03-18T03:16:29.755Z,91.70
2023-03-18T03:20:52.741Z,92.10
2023-03-18T03:25:15.421Z,92.70
2023-03-18T03:29:37.256Z,92.60
2023-03-18T03:33:59.747Z,92.50
2023-03-18T03:38:23.279Z,92.40
2023-03-18T03:42:46.400Z,92.20
2023-03-18T03:47:08.638Z,92.40
2023-03-18T03:51:30.479Z,92.70
2023-03-18T03:55:55.636Z,93.10
2023-03-18T04:00:22.918Z,93.50
2023-03-18T04:04:46.401Z,93.80
2023-03-18T04:09:19.562Z,93.80
2023-03-18T04:13:41.743Z,93.90
2023-03-18T04:18:07.185Z,94.30
2023-03-18T04:22:30.752Z,94.60
2023-03-18T04:26:53.263Z,95.20
2023-03-18T04:31:16.834Z,95.50
2023-03-18T04:35:38.854Z,95.60
2023-03-18T04:40:01.701Z,95.80
2023-03-18T04:44:25.634Z,96.00
2023-03-18T04:48:47.782Z,96.20
2023-03-18T04:53:10.076Z,96.50
2023-03-18T04:57:35.631Z,97.00
2023-03-18T05:01:58.283Z,97.30
2023-03-18T05:06:30.163Z,97.50
2023-03-18T05:10:59.511Z,97.90
2023-03-18T05:15:21.525Z,98.00
2023-03-18T05:19:49.358Z,98.30
2023-03-18T05:24:15.708Z,98.60
2023-03-18T05:28:38.050Z,98.60
2023-03-18T05:33:23.433Z,98.60
2023-03-18T05:37:51.324Z,98.80
2023-03-18T05:42:14.301Z,98.80
2023-03-18T05:46:37.149Z,98.60
2023-03-18T05:51:05.988Z,98.30
2023-03-18T05:55:31.173Z,97.80
2023-03-18T05:59:53.785Z,97.30
2023-03-18T06:04:19.499Z,96.20
2023-03-18T06:08:41.551Z,95.20
2023-03-18T06:13:03.723Z,94.70
2023-03-18T06:17:28.486Z,93.40
2023-03-18T06:21:51.089Z,91.10
2023-03-18T06:26:12.692Z,88.70
2023-03-18T06:30:42.342Z,85.40
2023-03-18T06:35:06.624Z,81.80
2023-03-18T06:39:29.256Z,79.70
2023-03-18T06:43:53.777Z,76.80
2023-03-18T06:48:15.659Z,71.90
2023-03-18T06:52:39.438Z,66.80
2023-03-18T06:57:07.687Z,62.80
2023-03-18T07:01:33.077Z,61.20
2023-03-18T07:05:56.196Z,61.70
2023-03-18T07:10:27.581Z,62.80
2023-03-18T07:15:00.382Z,63.70
2023-03-18T07:19:25.401Z,62.30
2023-03-18T07:23:47.390Z,62.50
2023-03-18T07:28:09.438Z,62.10
2023-03-18T07:32:31.849Z,60.80
2023-03-18T07:36:53.749Z,61.00
2023-03-18T07:41:15.940Z,61.10
2023-03-18T07:45:37.682Z,62.30
2023-03-18T07:50:00.223Z,63.20
2023-03-18T07:54:25.140Z,63.40
2023-03-18T07:58:48.071Z,62.50
2023-03-18T08:03:11.993Z,59.40
2023-03-18T08:07:34.877Z,57.30
2023-03-18T08:11:57.095Z,57.50
2023-03-18T08:16:18.961Z,57.10
2023-03-18T08:20:41.476Z,56.50
2023-03-18T08:25:03.636Z,56.30
2023-03-18T08:29:25.250Z,56.50
2023-03-18T08:33:47.672Z,55.80
2023-03-18T08:38:10.176Z,55.50
2023-03-18T08:42:31.911Z,54.90
2023-03-18T08:46:53.958Z,52.50
2023-03-18T08:51:16.988Z,49.90
2023-03-18T08:55:39.891Z,49.10
2023-03-18T09:00:02.034Z,47.30
2023-03-18T09:04:25.949Z,45.30
2023-03-18T09:08:48.032Z,44.00
2023-03-18T09:13:09.917Z,42.30
2023-03-18T09:17:48.872Z,41.00
2023-03-18T09:22:13.671Z,41.80
2023-03-18T09:26:35.505Z,40.20
2023-03-18T09:30:57.910Z,39.20
2023-03-18T09:35:20.465Z,40.90
2023-03-18T09:39:42.821Z,41.80
2023-03-18T09:44:37.684Z,43.60
2023-03-18T09:49:26.098Z,47.20
2023-03-18T09:53:54.572Z,47.40
2023-03-18T09:58:56.421Z,48.60
2023-03-18T10:03:42.732Z,50.60
2023-03-18T10:08:18.373Z,50.30
2023-03-18T10:12:48.449Z,49.20
2023-03-18T10:18:01.784Z,49.00
2023-03-18T10:23:10.230Z,50.20
2023-03-18T10:27:59.355Z,52.50
2023-03-18T10:32:49.036Z,54.50
2023-03-18T10:37:51.588Z,54.90
2023-03-18T10:42:30.043Z,54.90
2023-03-18T10:47:02.116Z,55.00
2023-03-18T10:52:01.179Z,53.70
2023-03-18T10:56:22.996Z,54.20
2023-03-18T11:00:45.411Z,53.30
2023-03-18T11:05:41.412Z,53.20
2023-03-18T11:10:18.711Z,53.40
2023-03-18T11:14:42.283Z,51.60
2023-03-18T11:19:41.919Z,50.00
2023-03-18T11:24:10.869Z,49.40
2023-03-18T11:28:33.359Z,47.10
2023-03-18T11:33:12.977Z,48.60
2023-03-18T11:37:35.785Z,51.00
2023-03-18T11:42:00.097Z,53.30
2023-03-18T11:46:25.541Z,54.40
2023-03-18T11:51:03.500Z,56.00
2023-03-18T11:55:58.566Z,56.00
2023-03-18T12:00:43.573Z,55.80
2023-03-18T12:05:53.338Z,56.30
2023-03-18T12:10:32.832Z,57.90
2023-03-18T12:15:11.626Z,58.70
2023-03-18T12:20:16.354Z,59.60
2023-03-18T12:25:08.576Z,60.60
2023-03-18T12:30:14.449Z,62.30
2023-03-18T12:35:21.734Z,63.20
2023-03-18T12:40:24.947Z,63.90
2023-03-18T12:45:05.561Z,63.50
2023-03-18T12:50:08.811Z,63.50
2023-03-18T12:55:15.839Z,61.50
2023-03-18T12:59:53.303Z,61.10
2023-03-18T13:04:31.507Z,61.10
2023-03-18T13:09:43.780Z,60.90
2023-03-18T13:14:45.642Z,62.20
2023-03-18T13:19:11.578Z,62.80
2023-03-18T13:24:05.657Z,63.00
2023-03-18T13:29:01.260Z,61.70
2023-03-18T13:33:43.571Z,62.60
2023-03-18T13:38:25.950Z,66.10
2023-03-18T13:42:49.678Z,67.90
2023-03-18T13:47:18.722Z,68.80
2023-03-18T13:51:44.187Z,70.20
2023-03-18T13:56:25.940Z,71.00
2023-03-18T14:01:00.497Z,72.00
2023-03-18T14:05:41.138Z,73.00
2023-03-18T14:10:18.313Z,73.20
2023-03-18T14:14:53.800Z,73.10
2023-03-18T14:19:32.436Z,73.30
2023-03-18T14:24:13.637Z,73.80
2023-03-18T14:28:50.736Z,74.00
2023-03-18T14:33:18.833Z,73.70
2023-03-18T14:38:17.538Z,74.60
2023-03-18T14:43:00.930Z,74.60
2023-03-18T14:47:48.726Z,75.70
2023-03-18T14:52:36.897Z,76.30
2023-03-18T14:57:02.821Z,75.60
2023-03-18T15:01:34.886Z,75.80
2023-03-18T15:06:00.789Z,76.40
2023-03-18T15:10:31.016Z,75.80
2023-03-18T15:14:53.007Z,75.50
2023-03-18T15:19:19.190Z,74.60
2023-03-18T15:23:53.046Z,74.30
2023-03-18T15:28:21.935Z,73.20
2023-03-18T15:32:49.862Z,74.40
2023-03-18T15:37:26.229Z,76.80
2023-03-18T15:41:53.558Z,77.00
2023-03-18T15:46:31.073Z,77.30
2023-03-18T15:51:00.664Z,76.90
2023-03-18T15:55:31.443Z,76.40
2023-03-18T15:59:54.402Z,76.40
2023-03-18T16:04:18.336Z,77.20
2023-03-18T16:08:40.106Z,77.30
2023-03-18T16:13:04.438Z,78.00
2023-03-18T16:17:26.871Z,79.50
2023-03-18T16:21:48.943Z,85.40
2023-03-18T16:26:18.450Z,89.80
2023-03-18T16:30:41.498Z,91.70
2023-03-18T16:35:03.792Z,90.70
2023-03-18T16:39:33.904Z,88.10
2023-03-18T16:43:56.033Z,84.50
2023-03-18T16:48:21.987Z,83.40
2023-03-18T16:52:45.175Z,84.20
2023-03-18T16:57:14.149Z,84.30
2023-03-18T17:01:36.022Z,85.00
2023-03-18T17:05:58.473Z,85.30
2023-03-18T17:10:24.853Z,86.80
2023-03-18T17:14:53.781Z,87.90
2023-03-18T17:19:16.911Z,88.80
2023-03-18T17:23:38.779Z,90.10
2023-03-18T17:28:06.240Z,89.60
2023-03-18T17:32:28.060Z,90.20
2023-03-18T17:36:50.214Z,90.80
2023-03-18T17:41:30.297Z,91.80
2023-03-18T17:45:52.160Z,92.10
2023-03-18T17:50:15.926Z,92.60
2023-03-18T17:54:37.935Z,93.00
2023-03-18T17:59:00.743Z,93.30
2023-03-18T18:03:28.627Z,93.60
2023-03-18T18:07:51.598Z,94.20
2023-03-18T18:12:25.447Z,94.70
2023-03-18T18:16:48.578Z,95.10
2023-03-18T18:21:18.312Z,95.90
2023-03-18T18:25:40.912Z,96.40
2023-03-18T18:30:02.748Z,97.10
2023-03-18T18:34:24.738Z,97.50
2023-03-18T18:38:46.676Z,98.10
2023-03-18T18:43:09.121Z,99.10
2023-03-18T18:47:32.790Z,99.90
2023-03-18T18:51:56.161Z,99.90
2023-03-18T18:56:36.856Z,99.90
2023-03-18T19:01:00.344Z,99.90
2023-03-18T19:05:22.393Z,99.90
2023-03-18T19:09:45.555Z,99.90
2023-03-18T19:14:33.923Z,99.90
2023-03-18T19:18:55.861Z,99.90
2023-03-18T19:23:24.887Z,99.90
2023-03-18T19:27:47.119Z,99.90
2023-03-18T19:32:19.123Z,99.90
2023-03-18T19:36:41.700Z,99.90
2023-03-18T19:41:03.830Z,99.90
2023-03-18T19:45:26.224Z,99.90
2023-03-18T19:49:47.810Z,99.90
2023-03-18T19:54:35.516Z,99.90
2023-03-18T19:58:59.298Z,99.90
2023-03-18T20:03:21.775Z,99.90
2023-03-18T20:07:43.711Z,99.90
2023-03-18T20:12:09.907Z,99.90
2023-03-18T20:16:32.199Z,99.90
2023-03-18T20:20:54.101Z,99.90
2023-03-18T20:25:30.688Z,99.90
2023-03-18T20:29:52.330Z,99.90
2023-03-18T20:34:14.404Z,99.90
2023-03-18T20:38:39.263Z,99.90
2023-03-18T20:43:01.700Z,99.90
2023-03-18T20:47:23.774Z,99.90
2023-03-18T20:51:45.835Z,99.90
2023-03-18T20:56:08.196Z,99.90
2023-03-18T21:00:33.337Z,99.90
2023-03-18T21:04:57.607Z,99.90
2023-03-18T21:09:19.620Z,99.90
2023-03-18T21:13:41.896Z,99.90
2023-03-18T21:18:04.752Z,99.90
2023-03-18T21:22:30.046Z,99.90
2023-03-18T21:27:03.686Z,99.90
2023-03-18T21:31:33.222Z,99.90
2023-03-18T21:35:57.222Z,99.90
2023-03-18T21:40:24.576Z,99.90
2023-03-18T21:44:46.425Z,99.90
2023-03-18T21:49:08.330Z,99.90
2023-03-18T21:53:30.166Z,99.90
2023-03-18T21:57:58.077Z,99.90
2023-03-18T22:02:25.221Z,99.90
2023-03-18T22:06:47.206Z,99.90
2023-03-18T22:11:22.104Z,99.90
2023-03-18T22:15:44.606Z,99.90
2023-03-18T22:20:07.363Z,99.90
2023-03-18T22:24:29.208Z,99.90
2023-03-18T22:28:51.117Z,99.90
2023-03-18T22:33:33.673Z,99.90
2023-03-18T22:37:56.196Z,99.90
2023-03-18T22:42:25.779Z,99.90
2023-03-18T22:46:47.897Z,99.90
2023-03-18T22:51:27.749Z,99.90
2023-03-18T22:55:51.676Z,99.90
2023-03-18T23:00:39.317Z,99.90
2023-03-18T23:05:00.978Z,99.90
2023-03-18T23:09:23.100Z,99.90
2023-03-18T23:13:50.196Z,99.90
2023-03-18T23:18:15.702Z,99.90
2023-03-18T23:22:37.362Z,99.90
2023-03-18T23:26:59.195Z,99.90
2023-03-18T23:31:21.366Z,99.90
2023-03-18T23:35:44.784Z,99.90
2023-03-18T23:40:07.467Z,99.90
2023-03-18T23:44:29.200Z,99.90
2023-03-18T23:48:51.414Z,99.90
2023-03-18T23:53:13.340Z,99.90
2023-03-18T23:57:35.676Z,99.90
